Latest Weather Observations for Walungurru (Kintore)

IDD60801

Issued at 9:01 am CST Thursday 9 February 2023 (issued every 10 minutes, with the page automatically refreshed every 10 minutes)

About weather observations | Map of weather stations | Latest weather observations for NT | Other Formats
Station Details ID: 015664 Name: WALUNGURRU AIRPORT Lat: -23.27 Lon: 129.38 Height: 454.3 m
Data from the previous 72 hours. | See also: Recent months at Walungurru (Kintore)
Date/Time
CST
Temp
°C
App
Temp
°C
Dew
Point
°C
Rel
Hum
%
Delta-T
°C
Wind Press
QNH
hPa
Press
MSL
hPa
Rain since
9am
mm
Dir  Spd
km/h
Gust
km/h
Spd
kts
Gust
kts
09/09:00am 31.0 30.5 18.7 48 8.1 NNE 19 22 10 12 1009.7 1005.7 0.0
09/08:30am 29.6 29.5 18.7 52 7.2 NE 17 22 9 12 1009.8 1005.8 0.0
09/08:00am 28.6 27.8 18.1 53 6.8 NE 19 24 10 13 1009.2 1005.3 0.0
09/07:30am 27.8 27.2 17.6 53 6.6 ENE 17 24 9 13 1009.2 1005.3 0.0
09/07:00am 26.6 26.6 17.1 56 6.0 NE 13 17 7 9 1008.8 1004.9 0.0
09/06:30am 26.2 27.0 16.4 54 6.2 NE 7 9 4 5 1008.5 1004.6 0.0
09/06:00am 27.1 26.7 16.1 51 6.9 NE 13 19 7 10 1008.1 1004.2 0.0
09/05:30am 27.8 25.9 15.1 46 7.9 ENE 19 26 10 14 1007.9 1003.9 0.0
09/05:00am 28.0 25.7 14.6 44 8.2 ENE 20 28 11 15 1007.6 1003.6 0.0
09/04:30am 28.4 26.1 14.6 43 8.5 ENE 20 30 11 16 1007.2 1003.2 0.0
09/04:00am 28.2 25.8 14.4 42 8.5 ENE 20 30 11 16 1006.6 1002.7 0.0
09/03:30am 29.2 27.0 13.4 38 9.6 E 17 22 9 12 1006.2 1002.3 0.0
09/03:00am 29.6 27.3 12.9 35 10.1 ENE 17 20 9 11 1006.0 1002.1 0.0
09/02:30am 29.4 26.5 12.3 34 10.2 ENE 19 24 10 13 1005.9 1001.9 0.0
09/02:00am 29.8 26.4 11.3 32 10.9 ENE 20 26 11 14 1006.3 1002.4 0.0
09/01:30am 30.3 26.5 9.8 28 11.8 ENE 20 28 11 15 1006.3 1002.4 0.0
09/01:00am 30.6 27.0 5.1 20 13.6 ENE 13 17 7 9 1006.3 1002.4 0.0
09/12:30am 28.1 26.5 7.9 28 11.2 E 6 13 3 7 1006.7 1002.8 0.0
09/12:00am 29.1 27.0 5.9 23 12.5 ESE 6 7 3 4 1006.7 1002.8 0.0
 
Date/Time
CST
Temp
°C
App
Temp
°C
Dew
Point
°C
Rel
Hum
%
Delta-T
°C
Wind Press
QNH
hPa
Press
MSL
hPa
Rain since
9am
mm
Dir  Spd
km/h
Gust
km/h
Spd
kts
Gust
kts
08/11:30pm 28.9 26.3 6.3 24 12.2 SSE 9 13 5 7 1006.7 1002.8 0.0
08/11:00pm 29.1 26.7 7.1 25 12.0 E 9 11 5 6 1006.7 1002.8 0.0
08/10:30pm 31.9 27.9 3.0 16 15.1 E 13 19 7 10 1006.8 1002.9 0.0
08/10:00pm 31.0 27.6 6.1 21 13.5 SSE 13 17 7 9 1006.7 1002.8 0.0
08/09:30pm 31.5 29.0 6.5 21 13.8 SE 9 13 5 7 1006.4 1002.5 0.0
08/09:00pm 32.2 29.7 6.4 20 14.2 SE 9 13 5 7 1006.2 1002.3 0.0
08/08:30pm 33.3 30.4 6.6 19 14.9 SSE 11 15 6 8 1006.0 1002.1 0.0
08/08:00pm 34.8 32.0 5.3 16 16.2 SE 9 17 5 9 1005.5 1001.5 0.0
08/07:30pm 37.1 33.3 4.1 13 18.0 SSE 13 20 7 11 1005.3 1001.3 0.0
08/07:00pm 38.2 33.8 5.0 13 18.4 ESE 17 22 9 12 1005.1 1001.1 0.0
08/06:30pm 39.0 34.5 4.4 12 19.1 S 17 24 9 13 1005.0 1001.0 0.0
08/06:00pm 39.3 35.0 3.4 11 19.6 ESE 15 26 8 14 1004.9 1000.9 0.0
08/05:30pm 39.8 35.2 3.8 11 19.8 SSE 17 28 9 15 1004.9 1000.9 0.0
08/05:00pm 40.1 35.4 5.3 12 19.6 E 19 28 10 15 1005.0 1001.0 0.0
08/04:30pm 39.5 34.8 6.0 13 19.0 SSE 20 28 11 15 1005.4 1001.4 0.0
08/04:00pm 38.9 36.0 6.6 14 18.4 S 11 20 6 11 1005.6 1001.6 0.0
08/03:30pm 39.2 37.0 7.8 15 18.3 SSE 9 20 5 11 1005.9 1001.9 0.0
08/03:00pm 38.7 35.6 7.4 15 18.1 ESE 13 28 7 15 1006.2 1002.3 0.0
08/02:30pm 38.2 36.1 9.7 18 17.0 E 11 20 6 11 1006.6 1002.7 0.0
08/02:00pm 39.4 36.9 9.8 17 17.7 S 13 26 7 14 1006.9 1003.0 0.0
08/01:30pm 38.3 36.8 10.6 19 16.7 N 9 15 5 8 1007.6 1003.6 0.0
08/01:00pm 37.7 36.9 10.9 20 16.2 SE 6 19 3 10 1007.9 1003.9 0.0
08/12:30pm 38.0 36.3 11.1 20 16.3 E 11 20 6 11 1008.3 1004.4 0.0
08/12:00pm 38.1 36.9 12.7 22 15.8 NE 11 22 6 12 1008.7 1004.8 0.0
08/11:30am 36.9 35.4 14.2 25 14.3 NE 15 30 8 16 1009.1 1005.2 0.0
08/11:00am 36.6 35.3 15.7 29 13.4 ENE 17 28 9 15 1009.5 1005.5 0.0
08/10:30am 34.7 33.1 16.1 33 12.0 NE 19 26 10 14 1009.6 1005.6 0.0
08/10:00am 33.8 32.6 16.2 35 11.3 NE 17 26 9 14 1009.7 1005.7 0.0
08/09:30am 32.6 31.2 15.6 36 10.8 NE 17 26 9 14 1009.9 1005.9 0.0
08/09:00am 31.4 29.5 14.1 35 10.7 NE 17 20 9 11 1009.8 1005.8 0.0
08/08:30am 29.8 27.3 12.3 34 10.5 ENE 17 22 9 12 1009.6 1005.6 0.0
08/08:00am 29.7 27.6 11.2 31 10.9 ENE 13 20 7 11 1009.6 1005.6 0.0
08/07:30am 28.9 27.1 11.0 33 10.5 ENE 11 20 6 11 1009.4 1005.4 0.0
08/07:00am 26.4 23.9 6.4 28 10.7 SSE 9 13 5 7 1008.9 1005.0 0.0
08/06:30am 25.8 23.3 4.9 26 10.8 S 7 15 4 8 1008.6 1004.7 0.0
08/06:00am 26.4 22.9 3.6 23 11.6 SSW 11 15 6 8 1008.3 1004.4 0.0
08/05:30am 26.5 23.3 3.1 22 11.8 SSW 9 11 5 6 1008.1 1004.2 0.0
08/05:00am 25.7 23.2 3.6 24 11.2 SSW 6 9 3 5 1008.1 1004.2 0.0
08/04:30am 25.5 21.4 4.6 26 10.8 SSE 15 19 8 10 1008.3 1004.4 0.0
08/04:00am 24.0 21.5 4.9 29 9.8 SSW 7 13 4 7 1008.3 1004.4 0.0
08/03:30am 24.9 21.7 5.2 28 10.2 SW 11 13 6 7 1008.4 1004.5 0.0
08/03:00am 25.0 21.7 4.7 27 10.4 SSW 11 15 6 8 1008.3 1004.4 0.0
08/02:30am 28.1 23.5 1.6 18 13.2 SSE 15 19 8 10 1008.3 1004.4 0.0
08/02:00am 28.1 23.6 2.3 19 12.9 SSE 15 17 8 9 1008.5 1004.6 0.0
08/01:30am 28.1 23.2 2.3 19 13.0 SSE 17 17 9 9 1008.7 1004.8 0.0
08/01:00am 28.1 23.8 3.0 20 12.7 SSE 15 17 8 9 1008.9 1005.0 0.0
08/12:30am 28.1 23.5 3.7 21 12.6 SSE 17 17 9 9 1009.4 1005.4 0.0
08/12:00am 26.5 23.1 6.0 27 10.9 SSE 13 15 7 8 1009.5 1005.5 0.0
 
Date/Time
CST
Temp
°C
App
Temp
°C
Dew
Point
°C
Rel
Hum
%
Delta-T
°C
Wind Press
QNH
hPa
Press
MSL
hPa
Rain since
9am
mm
Dir  Spd
km/h
Gust
km/h
Spd
kts
Gust
kts
07/11:30pm 26.7 23.6 7.2 29 10.6 SSE 13 13 7 7 1009.7 1005.7 0.0
07/11:00pm 27.3 24.2 7.2 28 10.9 SSE 13 13 7 7 1009.7 1005.7 0.0
07/10:30pm 28.1 25.3 6.8 26 11.6 SSE 11 13 6 7 1009.7 1005.7 0.0
07/10:00pm 29.7 26.3 5.7 22 12.9 SSE 13 15 7 8 1009.5 1005.5 0.0
07/09:30pm 28.6 26.8 9.3 30 11.0 SSE 9 11 5 6 1009.1 1005.2 0.0
07/09:00pm 30.3 28.7 8.1 25 12.5 ENE 6 7 3 4 1009.0 1005.1 0.0
07/08:30pm 30.9 30.2 8.6 25 12.6 SE 2 6 1 3 1008.8 1004.9 0.0
07/08:00pm 33.0 30.7 4.7 17 15.2 ESE 6 9 3 5 1008.4 1004.5 0.0
07/07:30pm 34.9 32.0 2.4 13 17.0 SE 7 11 4 6 1008.2 1004.3 0.0
07/07:00pm 36.4 32.9 1.2 11 18.2 E 9 13 5 7 1008.0 1004.0 0.0
07/06:30pm 37.1 33.8 0.4 10 18.9 SE 7 19 4 10 1007.6 1003.6 0.0
07/06:00pm 37.0 32.6 0.4 10 18.8 SE 13 20 7 11 1007.4 1003.4 0.0
07/05:30pm 37.4 32.5 2.0 11 18.7 SSE 17 22 9 12 1007.3 1003.3 0.0
07/05:00pm 37.5 33.0 2.1 11 18.7 SE 15 26 8 14 1007.3 1003.3 0.0
07/04:30pm 37.2 33.0 1.8 11 18.6 S 13 19 7 10 1007.5 1003.5 0.0
07/04:00pm 38.1 33.3 2.5 11 19.0 SSE 17 30 9 16 1007.7 1003.7 0.0
07/03:30pm 37.5 33.8 2.1 11 18.8 ENE 11 20 6 11 1007.8 1003.8 0.0
07/03:00pm 37.7 34.0 2.2 11 18.9 NNE 11 17 6 9 1008.1 1004.2 0.0
07/02:30pm 37.5 34.0 3.3 12 18.4 N 11 26 6 14 1008.4 1004.5 0.0
07/02:00pm 37.7 33.0 3.4 12 18.5 NE 17 22 9 12 1008.8 1004.9 0.0
07/01:30pm 37.4 34.2 3.2 12 18.4 ENE 9 17 5 9 1009.2 1005.3 0.0
07/01:00pm 36.2 31.7 2.3 12 17.8 NE 15 20 8 11 1009.9 1005.9 0.0
07/12:30pm 35.5 31.7 1.8 12 17.6 NNE 11 19 6 10 1010.4 1006.5 0.0
07/12:00pm 35.6 32.4 3.0 13 17.3 NNE 9 17 5 9 1011.0 1007.1 0.0
07/11:30am 35.6 31.6 3.0 13 17.3 NE 13 22 7 12 1011.3 1007.4 0.0
07/11:00am 34.9 30.4 2.4 13 17.0 ENE 15 20 8 11 1011.8 1007.8 0.0
07/10:30am 34.6 29.5 3.2 14 16.6 ENE 19 24 10 13 1011.9 1007.9 0.0
07/10:00am 33.7 29.2 4.4 16 15.7 E 17 22 9 12 1012.1 1008.2 0.0
07/09:30am 33.0 28.9 2.0 14 16.0 ENE 13 19 7 10 1012.0 1008.0 0.0
07/09:00am 30.7 28.1 4.4 19 13.9 SE 7 9 4 5 1012.1 1008.2 0.0
07/08:30am 29.3 27.2 6.7 24 12.3 ESE 7 9 4 5 1012.1 1008.2 0.0
07/08:00am 26.5 24.0 4.9 25 11.2 SE 7 11 4 6 1012.0 1008.0 0.0
07/07:30am 24.3 21.4 4.6 28 10.1 SE 9 11 5 6 1011.9 1007.9 0.0
07/07:00am 22.2 18.7 3.3 29 9.3 SE 11 15 6 8 1011.5 1007.6 0.0
07/06:30am 22.3 18.2 2.4 27 9.6 SE 13 19 7 10 1011.1 1007.2 0.0
07/06:00am 24.0 18.5 0.4 21 11.1 SSE 19 22 10 12 1010.8 1006.9 0.0
07/05:30am 24.2 19.4 0.5 21 11.2 SSE 15 17 8 9 1010.7 1006.8 0.0
07/05:00am 23.7 19.8 1.4 23 10.7 SE 11 15 6 8 1010.6 1006.7 0.0
07/04:30am 24.5 19.9 1.4 22 11.1 SSE 15 19 8 10 1010.7 1006.8 0.0
07/04:00am 23.5 20.7 2.9 26 10.1 SSE 7 13 4 7 1010.9 1007.0 0.0
07/03:30am 24.1 20.5 2.9 25 10.5 SSE 11 13 6 7 1010.8 1006.9 0.0
07/03:00am 24.3 20.8 3.6 26 10.4 SSE 11 15 6 8 1011.0 1007.1 0.0
07/02:30am 24.4 20.9 3.7 26 10.4 S 11 11 6 6 1011.0 1007.1 0.0
07/02:00am 26.0 21.2 2.7 22 11.6 SSE 17 20 9 11 1011.1 1007.2 0.0
07/01:30am 26.2 21.4 2.8 22 11.7 SSE 17 20 9 11 1011.3 1007.4 0.0
07/01:00am 25.6 21.7 3.6 24 11.1 SSE 13 15 7 8 1011.4 1007.5 0.0
07/12:30am 25.7 22.2 3.6 24 11.2 SSE 11 13 6 7 1011.7 1007.7 0.0
07/12:00am 24.8 22.4 5.1 28 10.2 SSE 7 13 4 7 1011.9 1007.9 0.0
 
Date/Time
CST
Temp
°C
App
Temp
°C
Dew
Point
°C
Rel
Hum
%
Delta-T
°C
Wind Press
QNH
hPa
Press
MSL
hPa
Rain since
9am
mm
Dir  Spd
km/h
Gust
km/h
Spd
kts
Gust
kts
06/11:30pm 27.7 24.2 3.4 21 12.4 ENE 11 15 6 8 1011.9 1007.9 0.0
06/11:00pm 28.7 24.6 2.1 18 13.3 ESE 13 17 7 9 1011.8 1007.8 0.0
06/10:30pm 27.1 23.4 4.2 23 11.8 SSE 13 20 7 11 1011.3 1007.4 0.0
06/10:00pm 27.3 24.5 5.0 24 11.7 SE 9 11 5 6 1011.1 1007.2 0.0
06/09:30pm 27.6 25.1 4.6 23 12.0 ESE 7 9 4 5 1011.0 1007.1 0.0
06/09:00pm 28.5 25.7 3.4 20 12.9 ESE 7 11 4 6 1010.9 1007.0 0.0
06/08:30pm 29.9 26.2 2.2 17 14.0 ESE 11 13 6 7 1010.7 1006.8 0.0
06/08:00pm 31.3 27.7 0.6 14 15.3 ESE 9 13 5 7 1010.4 1006.5 0.0
06/07:30pm 32.5 28.9 0.6 13 16.0 ESE 9 13 5 7 1010.1 1006.2 0.0
06/07:00pm 34.2 30.4 -0.4 11 17.2 ENE 9 17 5 9 1009.6 1005.6 0.0
06/06:30pm 34.6 29.4 -0.1 11 17.4 SE 17 24 9 13 1009.4 1005.4 0.0
06/06:00pm 34.9 30.5 0.1 11 17.6 ESE 13 20 7 11 1009.2 1005.3 0.0
06/05:30pm 35.6 32.2 -0.7 10 18.2 SE 7 15 4 8 1009.2 1005.3 0.0
06/05:00pm 35.5 31.7 -0.8 10 18.1 NNE 9 20 5 11 1009.5 1005.5 0.0
06/04:30pm 35.8 31.3 -0.5 10 18.3 ENE 13 26 7 14 1009.6 1005.6 0.0
06/04:00pm 35.1 31.3 -1.1 10 17.9 ENE 9 17 5 9 1009.9 1005.9 0.0
06/03:30pm 35.9 32.3 0.9 11 18.0 NNE 9 24 5 13 1010.1 1006.2 0.0
06/03:00pm 35.4 30.8 -0.8 10 18.1 E 13 24 7 13 1010.5 1006.6 0.0
06/02:30pm 34.6 31.3 -0.1 11 17.4 ESE 7 15 4 8 1010.8 1006.9 0.0
06/02:00pm 34.8 30.5 1.2 12 17.2 ENE 13 28 7 15 1011.2 1007.3 0.0
06/01:30pm 35.0 30.6 2.5 13 17.1 ENE 15 24 8 13 1011.7 1007.7 0.0
06/01:00pm 34.7 29.8 2.3 13 16.9 NNE 17 30 9 16 1012.2 1008.3 0.0
06/12:30pm 33.6 29.1 2.4 14 16.2 NNE 15 24 8 13 1012.6 1008.7 0.0
06/12:00pm 33.3 29.6 2.2 14 16.1 E 11 22 6 12 1013.1 1009.2 0.0
06/11:30am 32.9 28.5 2.9 15 15.7 NE 15 26 8 14 1013.5 1009.6 0.0
06/11:00am 31.8 26.6 3.8 17 14.7 NE 20 26 11 14 1013.8 1009.9 0.0
06/10:30am 31.8 25.9 3.8 17 14.7 NE 24 30 13 16 1014.1 1010.1 0.0
06/10:00am 30.4 24.2 4.2 19 13.8 NE 26 33 14 18 1014.3 1010.4 0.0
06/09:30am 28.8 23.0 4.3 21 12.8 ENE 24 33 13 18 1014.4 1010.5 0.0

Other formats

Comma delimited format used in spreadsheet applications
http://www.bom.gov.au/fwo/IDD60801/IDD60801.94321.axf

JavaScript Object Notation format (JSON) in row-major order
http://www.bom.gov.au/fwo/IDD60801/IDD60801.94321.json

Data quality

Most of these data are generated automatically and are frequently updated. Quality checks on data are not normally performed. It is possible for incorrect values to appear. Refer to information at About Latest Weather Observations and please check the disclaimer before using these data.